KFRI/FRI METAR and TAF weather

Enter ICAO airport designator
Station Type Date Time Source
KFRI METAR 2021/08/04 18:56 UTC NOAA

KFRI 041856Z AUTO 18007KT 10SM FEW210 30/17 A3008 RMK AO2 SLP176 T02950166


Station Type Date Time Source
KFRI Decoded METAR 2021/08/04 18:56 UTC NOAA

Fort Riley, Marshall AAF Ft Riley, KS, United States (KFRI) 39-03-20N 096-45-51W
Aug 04, 2021 - 02:56 PM EDT / 2021.08.04 1856 UTC
Wind: from the S (180 degrees) at 8 MPH (7 KT):0
Visibility: 10 mile(s):0
Sky conditions: mostly clear
Temperature: 85.1 F (29.5 C)
Dew Point: 61.9 F (16.6 C)
Relative Humidity: 45%
Pressure (altimeter): 30.08 in. Hg (1018 hPa)
ob: KFRI 041856Z AUTO 18007KT 10SM FEW210 30/17 A3008 RMK AO2 SLP176 T02950166
cycle: 19

Station Type Date Time Source
KFRI TAF 2021/08/04 13:06 UTC NOAA

TAF TAF KFRI 041300Z 0413/0519 VRB06KT 9999 SCT100 QNH3002INS
BECMG 0421/0422 17009KT 9999 SKC QNH3000INS
BECMG 0501/0502 VRB06KT 9999 SCT090 QNH2996INS TX30/0422Z TN15/0413Z

Example: see airport list